sensor_id;sensor_type;location;lat;lon;timestamp;pressure;altitude;pressure_sealevel;temperature;humidity
21588;BME280;10956;48.878;13.316;2022-10-16T00:00:36;94284.72;;;14.06;100.00
21588;BME280;10956;48.878;13.316;2022-10-16T00:03:03;94285.00;;;14.05;100.00
21588;BME280;10956;48.878;13.316;2022-10-16T00:05:29;94290.34;;;14.00;100.00
21588;BME280;10956;48.878;13.316;2022-10-16T00:07:54;94288.84;;;13.94;100.00
21588;BME280;10956;48.878;13.316;2022-10-16T00:10:20;94290.41;;;13.95;100.00
21588;BME280;10956;48.878;13.316;2022-10-16T00:12:46;94286.69;;;13.96;100.00
21588;BME280;10956;48.878;13.316;2022-10-16T00:15:11;94285.13;;;13.95;100.00
21588;BME280;10956;48.878;13.316;2022-10-16T00:17:37;94291.78;;;13.92;100.00
21588;BME280;10956;48.878;13.316;2022-10-16T00:20:03;94291.91;;;13.82;100.00
21588;BME280;10956;48.878;13.316;2022-10-16T00:22:28;94288.75;;;13.80;100.00
21588;BME280;10956;48.878;13.316;2022-10-16T00:24:54;94287.94;;;13.79;100.00
21588;BME280;10956;48.878;13.316;2022-10-16T00:27:19;94293.53;;;13.78;100.00
21588;BME280;10956;48.878;13.316;2022-10-16T00:29:45;94294.81;;;13.80;100.00
21588;BME280;10956;48.878;13.316;2022-10-16T00:32:10;94294.25;;;13.83;100.00
21588;BME280;10956;48.878;13.316;2022-10-16T00:34:35;94298.50;;;13.84;100.00
21588;BME280;10956;48.878;13.316;2022-10-16T00:37:01;94302.72;;;13.85;100.00
21588;BME280;10956;48.878;13.316;2022-10-16T00:39:27;94302.16;;;13.88;100.00
21588;BME280;10956;48.878;13.316;2022-10-16T00:41:53;94308.53;;;13.87;100.00
21588;BME280;10956;48.878;13.316;2022-10-16T00:44:45;94305.06;;;13.87;100.00
21588;BME280;10956;48.878;13.316;2022-10-16T00:47:17;94305.88;;;13.87;100.00
21588;BME280;10956;48.878;13.316;2022-10-16T00:49:45;94313.31;;;13.85;100.00
21588;BME280;10956;48.878;13.316;2022-10-16T00:52:11;94307.22;;;13.85;100.00
21588;BME280;10956;48.878;13.316;2022-10-16T00:54:38;94320.19;;;13.86;100.00
21588;BME280;10956;48.878;13.316;2022-10-16T00:57:05;94317.81;;;13.85;100.00
21588;BME280;10956;48.878;13.316;2022-10-16T00:59:32;94322.31;;;13.84;100.00
21588;BME280;10956;48.878;13.316;2022-10-16T01:01:59;94323.34;;;13.88;100.00
21588;BME280;10956;48.878;13.316;2022-10-16T01:04:26;94318.84;;;13.89;100.00
21588;BME280;10956;48.878;13.316;2022-10-16T01:07:01;94303.72;;;13.89;100.00
21588;BME280;10956;48.878;13.316;2022-10-16T01:09:42;94307.44;;;13.88;100.00
21588;BME280;10956;48.878;13.316;2022-10-16T01:12:17;94305.06;;;13.87;100.00
21588;BME280;10956;48.878;13.316;2022-10-16T01:17:32;94310.22;;;13.78;100.00
21588;BME280;10956;48.878;13.316;2022-10-16T01:20:29;94307.00;;;13.81;100.00
21588;BME280;10956;48.878;13.316;2022-10-16T01:28:55;94307.91;;;13.72;100.00
21588;BME280;10956;48.878;13.316;2022-10-16T01:31:25;94316.13;;;13.70;100.00
21588;BME280;10956;48.878;13.316;2022-10-16T01:34:16;94314.56;;;13.69;100.00
21588;BME280;10956;48.878;13.316;2022-10-16T01:36:51;94311.91;;;13.69;100.00
21588;BME280;10956;48.878;13.316;2022-10-16T01:39:21;94303.97;;;13.69;100.00
21588;BME280;10956;48.878;13.316;2022-10-16T01:41:54;94308.47;;;13.69;100.00
21588;BME280;10956;48.878;13.316;2022-10-16T01:44:26;94318.50;;;13.72;100.00
21588;BME280;10956;48.878;13.316;2022-10-16T01:46:54;94318.22;;;13.73;100.00
21588;BME280;10956;48.878;13.316;2022-10-16T01:49:23;94310.28;;;13.73;100.00
21588;BME280;10956;48.878;13.316;2022-10-16T01:51:53;94326.16;;;13.73;100.00
21588;BME280;10956;48.878;13.316;2022-10-16T01:54:23;94317.16;;;13.74;100.00
21588;BME280;10956;48.878;13.316;2022-10-16T01:56:50;94314.22;;;13.76;100.00
21588;BME280;10956;48.878;13.316;2022-10-16T01:59:20;94315.78;;;13.77;100.00
21588;BME280;10956;48.878;13.316;2022-10-16T02:01:52;94323.47;;;13.78;100.00
21588;BME280;10956;48.878;13.316;2022-10-16T02:04:39;94322.66;;;13.78;100.00
21588;BME280;10956;48.878;13.316;2022-10-16T02:07:06;94325.38;;;13.73;100.00
21588;BME280;10956;48.878;13.316;2022-10-16T02:09:33;94324.34;;;13.69;100.00
21588;BME280;10956;48.878;13.316;2022-10-16T02:12:03;94318.84;;;13.65;100.00
21588;BME280;10956;48.878;13.316;2022-10-16T02:14:32;94314.09;;;13.62;100.00
21588;BME280;10956;48.878;13.316;2022-10-16T02:16:57;94333.19;;;13.59;100.00
21588;BME280;10956;48.878;13.316;2022-10-16T02:19:23;94328.97;;;13.58;100.00
21588;BME280;10956;48.878;13.316;2022-10-16T02:21:50;94331.91;;;13.56;100.00
21588;BME280;10956;48.878;13.316;2022-10-16T02:29:16;94331.63;;;13.58;100.00
21588;BME280;10956;48.878;13.316;2022-10-16T02:31:46;94337.97;;;13.57;100.00
21588;BME280;10956;48.878;13.316;2022-10-16T02:34:15;94334.81;;;13.55;100.00
21588;BME280;10956;48.878;13.316;2022-10-16T02:36:42;94336.41;;;13.56;100.00
21588;BME280;10956;48.878;13.316;2022-10-16T02:39:08;94333.75;;;13.56;100.00
21588;BME280;10956;48.878;13.316;2022-10-16T02:41:34;94343.28;;;13.57;100.00
21588;BME280;10956;48.878;13.316;2022-10-16T02:44:00;94347.00;;;13.56;100.00
21588;BME280;10956;48.878;13.316;2022-10-16T02:46:26;94335.91;;;13.54;100.00
21588;BME280;10956;48.878;13.316;2022-10-16T02:48:51;94339.34;;;13.54;100.00
21588;BME280;10956;48.878;13.316;2022-10-16T02:51:16;94340.13;;;13.55;100.00
21588;BME280;10956;48.878;13.316;2022-10-16T02:53:42;94334.31;;;13.53;100.00
21588;BME280;10956;48.878;13.316;2022-10-16T02:56:07;94347.03;;;13.51;100.00
21588;BME280;10956;48.878;13.316;2022-10-16T02:58:33;94347.09;;;13.46;100.00
21588;BME280;10956;48.878;13.316;2022-10-16T03:00:58;94353.22;;;13.41;100.00
21588;BME280;10956;48.878;13.316;2022-10-16T03:03:23;94350.84;;;13.40;100.00
21588;BME280;10956;48.878;13.316;2022-10-16T03:05:50;94349.84;;;13.36;100.00
21588;BME280;10956;48.878;13.316;2022-10-16T03:08:15;94357.81;;;13.31;100.00
21588;BME280;10956;48.878;13.316;2022-10-16T03:10:41;94352.00;;;13.29;100.00
21588;BME280;10956;48.878;13.316;2022-10-16T03:13:06;94348.06;;;13.26;100.00
21588;BME280;10956;48.878;13.316;2022-10-16T03:15:32;94347.28;;;13.25;100.00
21588;BME280;10956;48.878;13.316;2022-10-16T03:17:58;94356.34;;;13.14;100.00
21588;BME280;10956;48.878;13.316;2022-10-16T03:20:24;94362.72;;;13.08;100.00
21588;BME280;10956;48.878;13.316;2022-10-16T03:22:49;94359.56;;;13.06;100.00
21588;BME280;10956;48.878;13.316;2022-10-16T03:25:15;94361.72;;;13.04;100.00
21588;BME280;10956;48.878;13.316;2022-10-16T03:27:40;94365.41;;;13.03;100.00
21588;BME280;10956;48.878;13.316;2022-10-16T03:30:06;94365.41;;;13.03;100.00
21588;BME280;10956;48.878;13.316;2022-10-16T03:32:32;94363.28;;;13.05;100.00
21588;BME280;10956;48.878;13.316;2022-10-16T03:34:57;94352.16;;;13.08;100.00
21588;BME280;10956;48.878;13.316;2022-10-16T03:37:23;94362.19;;;13.11;100.00
21588;BME280;10956;48.878;13.316;2022-10-16T03:39:48;94368.78;;;13.14;100.00
21588;BME280;10956;48.878;13.316;2022-10-16T03:42:14;94358.72;;;13.16;100.00
21588;BME280;10956;48.878;13.316;2022-10-16T03:44:39;94357.91;;;13.15;100.00
21588;BME280;10956;48.878;13.316;2022-10-16T03:47:04;94352.16;;;13.08;100.00
21588;BME280;10956;48.878;13.316;2022-10-16T03:49:30;94366.44;;;13.07;100.00
21588;BME280;10956;48.878;13.316;2022-10-16T03:51:55;94368.03;;;13.08;100.00
21588;BME280;10956;48.878;13.316;2022-10-16T03:54:21;94377.28;;;13.11;100.00
21588;BME280;10956;48.878;13.316;2022-10-16T03:56:47;94376.19;;;13.12;100.00
21588;BME280;10956;48.878;13.316;2022-10-16T03:59:13;94366.41;;;13.12;100.00
21588;BME280;10956;48.878;13.316;2022-10-16T04:01:38;94362.19;;;13.11;100.00
21588;BME280;10956;48.878;13.316;2022-10-16T04:04:04;94376.47;;;13.10;100.00
21588;BME280;10956;48.878;13.316;2022-10-16T04:06:30;94374.09;;;13.09;100.00
21588;BME280;10956;48.878;13.316;2022-10-16T04:08:55;94371.75;;;13.07;100.00
21588;BME280;10956;48.878;13.316;2022-10-16T04:11:21;94380.75;;;13.06;100.00
21588;BME280;10956;48.878;13.316;2022-10-16T04:13:46;94387.59;;;13.07;100.00
21588;BME280;10956;48.878;13.316;2022-10-16T04:16:12;94392.34;;;13.10;100.00
21588;BME280;10956;48.878;13.316;2022-10-16T04:18:37;94398.94;;;13.13;100.00
21588;BME280;10956;48.878;13.316;2022-10-16T04:21:04;94385.72;;;13.13;100.00
21588;BME280;10956;48.878;13.316;2022-10-16T04:23:30;94382.78;;;13.14;100.00
21588;BME280;10956;48.878;13.316;2022-10-16T04:25:55;94390.22;;;13.12;100.00
21588;BME280;10956;48.878;13.316;2022-10-16T04:28:21;94393.94;;;13.11;100.00
21588;BME280;10956;48.878;13.316;2022-10-16T04:30:47;94396.31;;;13.13;100.00
21588;BME280;10956;48.878;13.316;2022-10-16T04:33:12;94393.94;;;13.11;100.00
21588;BME280;10956;48.878;13.316;2022-10-16T04:35:38;94392.34;;;13.10;100.00
21588;BME280;10956;48.878;13.316;2022-10-16T04:38:03;94392.91;;;13.07;100.00
21588;BME280;10956;48.878;13.316;2022-10-16T04:40:29;94396.63;;;13.06;100.00
21588;BME280;10956;48.878;13.316;2022-10-16T04:42:58;94402.47;;;13.03;100.00
21588;BME280;10956;48.878;13.316;2022-10-16T04:45:24;94400.41;;;12.95;100.00
21588;BME280;10956;48.878;13.316;2022-10-16T04:47:49;94393.56;;;12.89;100.00
21588;BME280;10956;48.878;13.316;2022-10-16T04:50:14;94398.59;;;12.85;100.00
21588;BME280;10956;48.878;13.316;2022-10-16T04:52:40;94410.56;;;12.78;100.00
21588;BME280;10956;48.878;13.316;2022-10-16T04:55:06;94409.53;;;12.74;100.00
21588;BME280;10956;48.878;13.316;2022-10-16T04:57:31;94413.22;;;12.73;100.00
21588;BME280;10956;48.878;13.316;2022-10-16T04:59:58;94408.50;;;12.70;100.00
21588;BME280;10956;48.878;13.316;2022-10-16T05:02:24;94408.75;;;12.68;100.00
21588;BME280;10956;48.878;13.316;2022-10-16T05:04:50;94403.75;;;12.67;100.00
21588;BME280;10956;48.878;13.316;2022-10-16T05:07:16;94400.59;;;12.65;100.00
21588;BME280;10956;48.878;13.316;2022-10-16T05:09:42;94405.34;;;12.63;100.00
21588;BME280;10956;48.878;13.316;2022-10-16T05:12:08;94409.56;;;12.64;100.00
21588;BME280;10956;48.878;13.316;2022-10-16T05:14:33;94418.56;;;12.63;100.00
21588;BME280;10956;48.878;13.316;2022-10-16T05:16:59;94422.81;;;12.58;100.00
21588;BME280;10956;48.878;13.316;2022-10-16T05:19:25;94415.94;;;12.57;100.00
21588;BME280;10956;48.878;13.316;2022-10-16T05:21:50;94417.03;;;12.51;100.00
21588;BME280;10956;48.878;13.316;2022-10-16T05:24:16;94417.59;;;12.48;100.00
21588;BME280;10956;48.878;13.316;2022-10-16T05:26:41;94426.56;;;12.47;100.00
21588;BME280;10956;48.878;13.316;2022-10-16T05:29:07;94427.91;;;12.45;100.00
21588;BME280;10956;48.878;13.316;2022-10-16T05:31:32;94423.47;;;12.30;100.00
21588;BME280;10956;48.878;13.316;2022-10-16T05:33:59;94434.06;;;12.25;100.00
21588;BME280;10956;48.878;13.316;2022-10-16T05:36:25;94439.34;;;12.25;100.00
21588;BME280;10956;48.878;13.316;2022-10-16T05:38:51;94446.75;;;12.23;100.00
21588;BME280;10956;48.878;13.316;2022-10-16T05:41:17;94443.84;;;12.24;100.00
21588;BME280;10956;48.878;13.316;2022-10-16T05:43:47;94447.78;;;12.27;100.00
21588;BME280;10956;48.878;13.316;2022-10-16T05:46:12;94452.00;;;12.33;100.00
21588;BME280;10956;48.878;13.316;2022-10-16T05:48:38;94455.69;;;12.37;100.00
21588;BME280;10956;48.878;13.316;2022-10-16T05:51:05;94455.41;;;12.44;100.00
21588;BME280;10956;48.878;13.316;2022-10-16T05:53:33;94445.59;;;12.49;100.00
21588;BME280;10956;48.878;13.316;2022-10-16T05:55:59;94449.81;;;12.55;100.00
21588;BME280;10956;48.878;13.316;2022-10-16T05:58:28;94456.13;;;12.59;100.00
21588;BME280;10956;48.878;13.316;2022-10-16T06:00:55;94459.28;;;12.61;100.00
21588;BME280;10956;48.878;13.316;2022-10-16T06:03:20;94458.44;;;12.71;100.00
21588;BME280;10956;48.878;13.316;2022-10-16T06:05:46;94459.97;;;12.82;100.00
21588;BME280;10956;48.878;13.316;2022-10-16T06:08:14;94461.78;;;12.92;100.00
21588;BME280;10956;48.878;13.316;2022-10-16T06:10:44;94470.44;;;13.03;100.00
21588;BME280;10956;48.878;13.316;2022-10-16T06:13:12;94485.47;;;13.12;100.00
21588;BME280;10956;48.878;13.316;2022-10-16T06:15:39;94484.13;;;13.15;100.00
21588;BME280;10956;48.878;13.316;2022-10-16T06:18:09;94482.59;;;13.09;100.00
21588;BME280;10956;48.878;13.316;2022-10-16T06:20:36;94492.41;;;13.03;100.00
21588;BME280;10956;48.878;13.316;2022-10-16T06:23:01;94493.75;;;13.01;100.00
21588;BME280;10956;48.878;13.316;2022-10-16T06:25:32;94479.44;;;13.02;100.00
21588;BME280;10956;48.878;13.316;2022-10-16T06:27:58;94477.59;;;13.02;100.00
21588;BME280;10956;48.878;13.316;2022-10-16T06:30:23;94478.38;;;13.03;100.00
21588;BME280;10956;48.878;13.316;2022-10-16T06:32:49;94492.94;;;13.00;100.00
21588;BME280;10956;48.878;13.316;2022-10-16T06:35:14;94491.91;;;12.96;100.00
21588;BME280;10956;48.878;13.316;2022-10-16T06:37:40;94490.38;;;12.85;100.00
21588;BME280;10956;48.878;13.316;2022-10-16T06:40:06;94502.03;;;12.84;100.00
21588;BME280;10956;48.878;13.316;2022-10-16T06:42:32;94500.41;;;12.88;100.00
21588;BME280;10956;48.878;13.316;2022-10-16T06:44:57;94498.28;;;12.90;100.00
21588;BME280;10956;48.878;13.316;2022-10-16T06:47:23;94506.19;;;12.95;100.00
21588;BME280;10956;48.878;13.316;2022-10-16T06:49:49;94507.72;;;13.06;100.00
21588;BME280;10956;48.878;13.316;2022-10-16T06:52:14;94506.63;;;13.12;100.00
21588;BME280;10956;48.878;13.316;2022-10-16T06:54:40;94498.97;;;13.11;100.00
21588;BME280;10956;48.878;13.316;2022-10-16T06:57:05;94484.91;;;13.20;100.00
21588;BME280;10956;48.878;13.316;2022-10-16T06:59:30;94492.78;;;13.31;100.00
21588;BME280;10956;48.878;13.316;2022-10-16T07:01:56;94485.63;;;13.36;100.00
21588;BME280;10956;48.878;13.316;2022-10-16T07:04:21;94492.97;;;13.44;100.00
21588;BME280;10956;48.878;13.316;2022-10-16T07:06:47;94504.78;;;13.57;100.00
21588;BME280;10956;48.878;13.316;2022-10-16T07:09:12;94502.06;;;13.67;100.00
21588;BME280;10956;48.878;13.316;2022-10-16T07:11:39;94509.41;;;13.75;100.00
21588;BME280;10956;48.878;13.316;2022-10-16T07:14:12;94515.97;;;13.83;100.00
21588;BME280;10956;48.878;13.316;2022-10-16T07:16:40;94518.56;;;13.88;100.00
21588;BME280;10956;48.878;13.316;2022-10-16T07:19:05;94515.09;;;13.93;100.00
21588;BME280;10956;48.878;13.316;2022-10-16T07:21:32;94519.28;;;13.99;100.00
21588;BME280;10956;48.878;13.316;2022-10-16T07:24:01;94521.88;;;14.04;100.00
21588;BME280;10956;48.878;13.316;2022-10-16T07:26:28;94523.44;;;14.10;100.00
21588;BME280;10956;48.878;13.316;2022-10-16T07:28:55;94527.09;;;14.14;100.00
21588;BME280;10956;48.878;13.316;2022-10-16T07:31:20;94533.41;;;14.18;100.00
21588;BME280;10956;48.878;13.316;2022-10-16T07:33:47;94538.94;;;14.21;100.00
21588;BME280;10956;48.878;13.316;2022-10-16T07:36:17;94539.22;;;14.20;100.00
21588;BME280;10956;48.878;13.316;2022-10-16T07:38:43;94554.53;;;14.28;100.00
21588;BME280;10956;48.878;13.316;2022-10-16T07:41:12;94550.19;;;14.42;100.00
21588;BME280;10956;48.878;13.316;2022-10-16T07:43:38;94551.59;;;14.59;100.00
21588;BME280;10956;48.878;13.316;2022-10-16T07:46:04;94545.91;;;14.94;100.00
21588;BME280;10956;48.878;13.316;2022-10-16T07:48:31;94545.44;;;15.30;100.00
21588;BME280;10956;48.878;13.316;2022-10-16T07:51:01;94547.81;;;15.50;100.00
21588;BME280;10956;48.878;13.316;2022-10-16T07:53:27;94550.69;;;15.54;100.00
21588;BME280;10956;48.878;13.316;2022-10-16T07:56:00;94541.44;;;15.51;100.00
21588;BME280;10956;48.878;13.316;2022-10-16T07:58:28;94550.97;;;15.52;100.00
21588;BME280;10956;48.878;13.316;2022-10-16T08:00:55;94552.84;;;15.51;100.00
21588;BME280;10956;48.878;13.316;2022-10-16T08:03:21;94557.88;;;15.53;100.00
21588;BME280;10956;48.878;13.316;2022-10-16T08:05:46;94557.09;;;15.52;100.00
21588;BME280;10956;48.878;13.316;2022-10-16T08:08:13;94563.19;;;15.53;100.00
21588;BME280;10956;48.878;13.316;2022-10-16T08:10:40;94562.25;;;15.44;100.00
21588;BME280;10956;48.878;13.316;2022-10-16T08:13:05;94564.53;;;15.32;100.00
21588;BME280;10956;48.878;13.316;2022-10-16T08:15:32;94565.16;;;15.24;100.00
21588;BME280;10956;48.878;13.316;2022-10-16T08:18:00;94574.22;;;15.23;100.00
21588;BME280;10956;48.878;13.316;2022-10-16T08:20:27;94573.56;;;15.31;100.00
21588;BME280;10956;48.878;13.316;2022-10-16T08:22:53;94576.66;;;15.38;100.00
21588;BME280;10956;48.878;13.316;2022-10-16T08:25:20;94586.94;;;15.44;100.00
21588;BME280;10956;48.878;13.316;2022-10-16T08:27:45;94579.69;;;15.50;100.00
21588;BME280;10956;48.878;13.316;2022-10-16T08:30:13;94579.69;;;15.50;100.00
21588;BME280;10956;48.878;13.316;2022-10-16T08:32:38;94584.44;;;15.53;100.00
21588;BME280;10956;48.878;13.316;2022-10-16T08:35:05;94590.25;;;15.55;100.00
21588;BME280;10956;48.878;13.316;2022-10-16T08:37:31;94598.19;;;15.60;100.00
21588;BME280;10956;48.878;13.316;2022-10-16T08:39:57;94589.00;;;15.71;100.00
21588;BME280;10956;48.878;13.316;2022-10-16T08:50:25;94589.00;;;15.71;100.00
21588;BME280;10956;48.878;13.316;2022-10-16T08:52:53;94603.06;;;15.72;100.00
21588;BME280;10956;48.878;13.316;2022-10-16T08:55:46;94600.34;;;15.77;100.00
21588;BME280;10956;48.878;13.316;2022-10-16T08:58:16;94601.56;;;15.85;100.00
21588;BME280;10956;48.878;13.316;2022-10-16T09:00:44;94604.56;;;15.97;100.00
21588;BME280;10956;48.878;13.316;2022-10-16T09:14:44;94611.59;;;16.39;100.00
21588;BME280;10956;48.878;13.316;2022-10-16T09:22:47;94620.50;;;16.48;100.00
21588;BME280;10956;48.878;13.316;2022-10-16T09:25:20;94622.28;;;16.53;100.00
21588;BME280;10956;48.878;13.316;2022-10-16T09:27:48;94615.19;;;16.62;100.00
21588;BME280;10956;48.878;13.316;2022-10-16T09:30:18;94621.53;;;16.66;100.00
21588;BME280;10956;48.878;13.316;2022-10-16T09:32:46;94619.69;;;16.80;100.00
21588;BME280;10956;48.878;13.316;2022-10-16T09:35:40;94633.13;;;17.02;100.00
21588;BME280;10956;48.878;13.316;2022-10-16T09:38:07;94630.06;;;17.23;100.00
21588;BME280;10956;48.878;13.316;2022-10-16T09:40:35;94619.81;;;17.43;100.00
21588;BME280;10956;48.878;13.316;2022-10-16T09:46:02;94622.53;;;17.80;100.00
21588;BME280;10956;48.878;13.316;2022-10-16T09:48:44;94629.22;;;17.91;100.00
21588;BME280;10956;48.878;13.316;2022-10-16T09:51:28;94631.97;;;17.99;100.00
21588;BME280;10956;48.878;13.316;2022-10-16T09:54:02;94633.72;;;18.04;100.00
21588;BME280;10956;48.878;13.316;2022-10-16T09:56:37;94633.72;;;18.04;100.00
21588;BME280;10956;48.878;13.316;2022-10-16T09:59:17;94631.06;;;18.04;100.00
21588;BME280;10956;48.878;13.316;2022-10-16T10:01:51;94629.72;;;17.93;100.00
21588;BME280;10956;48.878;13.316;2022-10-16T10:04:19;94631.81;;;17.82;100.00
21588;BME280;10956;48.878;13.316;2022-10-16T10:06:47;94630.66;;;17.74;100.00
21588;BME280;10956;48.878;13.316;2022-10-16T10:09:34;94634.22;;;17.70;100.00
21588;BME280;10956;48.878;13.316;2022-10-16T10:12:04;94623.34;;;17.66;100.00
21588;BME280;10956;48.878;13.316;2022-10-16T10:17:22;94636.25;;;17.59;100.00
21588;BME280;10956;48.878;13.316;2022-10-16T10:22:40;94626.81;;;17.53;100.00
21588;BME280;10956;48.878;13.316;2022-10-16T10:35:46;94620.31;;;17.32;100.00
21588;BME280;10956;48.878;13.316;2022-10-16T10:46:04;94615.47;;;17.34;100.00
21588;BME280;10956;48.878;13.316;2022-10-16T10:49:10;94618.94;;;17.34;100.00
21588;BME280;10956;48.878;13.316;2022-10-16T10:54:49;94610.75;;;17.31;100.00
21588;BME280;10956;48.878;13.316;2022-10-16T10:57:32;94615.28;;;17.30;100.00
21588;BME280;10956;48.878;13.316;2022-10-16T11:05:52;94617.66;;;17.32;100.00
21588;BME280;10956;48.878;13.316;2022-10-16T11:08:33;94621.69;;;17.29;100.00
21588;BME280;10956;48.878;13.316;2022-10-16T11:16:54;94619.03;;;17.29;100.00
21588;BME280;10956;48.878;13.316;2022-10-16T11:20:34;94618.72;;;17.31;100.00
21588;BME280;10956;48.878;13.316;2022-10-16T11:22:35;94623.75;;;17.32;100.00
21588;BME280;10956;48.878;13.316;2022-10-16T11:25:21;94617.44;;;17.28;100.00
21588;BME280;10956;48.878;13.316;2022-10-16T11:28:13;94618.72;;;17.31;100.00
21588;BME280;10956;48.878;13.316;2022-10-16T11:30:47;94617.34;;;17.33;100.00
21588;BME280;10956;48.878;13.316;2022-10-16T11:41:36;94629.06;;;17.46;100.00
21588;BME280;10956;48.878;13.316;2022-10-16T11:46:31;94620.38;;;17.54;100.00
21588;BME280;10956;48.878;13.316;2022-10-16T11:49:03;94620.69;;;17.53;100.00
21588;BME280;10956;48.878;13.316;2022-10-16T11:51:39;94613.97;;;17.55;100.00
21588;BME280;10956;48.878;13.316;2022-10-16T11:54:18;94608.34;;;17.57;100.00
21588;BME280;10956;48.878;13.316;2022-10-16T11:56:48;94597.97;;;17.55;100.00
21588;BME280;10956;48.878;13.316;2022-10-16T12:05:24;94602.31;;;17.51;100.00
21588;BME280;10956;48.878;13.316;2022-10-16T12:08:12;94598.69;;;17.47;100.00
21588;BME280;10956;48.878;13.316;2022-10-16T12:10:41;94596.03;;;17.47;100.00
21588;BME280;10956;48.878;13.316;2022-10-16T12:13:36;94592.56;;;17.47;100.00
21588;BME280;10956;48.878;13.316;2022-10-16T12:18:38;94587.03;;;17.57;100.00
21588;BME280;10956;48.878;13.316;2022-10-16T12:21:04;94583.47;;;17.61;100.00
21588;BME280;10956;48.878;13.316;2022-10-16T12:23:32;94591.16;;;17.63;100.00
21588;BME280;10956;48.878;13.316;2022-10-16T12:25:59;94589.88;;;17.60;100.00
21588;BME280;10956;48.878;13.316;2022-10-16T12:28:31;94591.06;;;17.54;100.00
21588;BME280;10956;48.878;13.316;2022-10-16T12:31:00;94591.56;;;17.56;100.00
21588;BME280;10956;48.878;13.316;2022-10-16T12:33:40;94601.03;;;17.62;100.00
21588;BME280;10956;48.878;13.316;2022-10-16T12:36:16;94597.28;;;17.63;100.00
21588;BME280;10956;48.878;13.316;2022-10-16T12:38:52;94601.63;;;17.59;100.00
21588;BME280;10956;48.878;13.316;2022-10-16T12:41:32;94607.56;;;17.56;100.00
21588;BME280;10956;48.878;13.316;2022-10-16T12:43:58;94612.97;;;17.65;100.00
21588;BME280;10956;48.878;13.316;2022-10-16T12:46:38;94608.72;;;17.64;100.00
21588;BME280;10956;48.878;13.316;2022-10-16T12:51:40;94607.94;;;17.63;100.00
21588;BME280;10956;48.878;13.316;2022-10-16T12:54:28;94614.28;;;17.67;100.00
21588;BME280;10956;48.878;13.316;2022-10-16T12:57:09;94613.47;;;17.67;100.00
21588;BME280;10956;48.878;13.316;2022-10-16T13:13:26;94625.72;;;17.68;100.00
21588;BME280;10956;48.878;13.316;2022-10-16T13:23:38;94620.28;;;17.73;100.00
21588;BME280;10956;48.878;13.316;2022-10-16T13:28:42;94626.56;;;17.91;100.00
21588;BME280;10956;48.878;13.316;2022-10-16T13:31:22;94625.84;;;17.99;100.00
21588;BME280;10956;48.878;13.316;2022-10-16T13:33:54;94629.47;;;18.03;100.00
21588;BME280;10956;48.878;13.316;2022-10-16T13:36:28;94627.78;;;18.07;100.00
21588;BME280;10956;48.878;13.316;2022-10-16T13:39:14;94632.69;;;18.14;100.00
21588;BME280;10956;48.878;13.316;2022-10-16T13:41:40;94627.06;;;18.15;100.00
21588;BME280;10956;48.878;13.316;2022-10-16T13:44:14;94629.72;;;18.15;100.00
21588;BME280;10956;48.878;13.316;2022-10-16T13:46:41;94632.28;;;18.20;100.00
21588;BME280;10956;48.878;13.316;2022-10-16T13:49:15;94637.00;;;18.23;100.00
21588;BME280;10956;48.878;13.316;2022-10-16T13:51:41;94638.59;;;18.24;100.00
21588;BME280;10956;48.878;13.316;2022-10-16T13:54:10;94633.84;;;18.21;100.00
21588;BME280;10956;48.878;13.316;2022-10-16T13:56:39;94636.66;;;18.16;100.00
21588;BME280;10956;48.878;13.316;2022-10-16T13:59:23;94644.75;;;18.11;100.00
21588;BME280;10956;48.878;13.316;2022-10-16T14:01:49;94649.91;;;18.07;100.00
21588;BME280;10956;48.878;13.316;2022-10-16T14:04:16;94645.00;;;18.01;100.00
21588;BME280;10956;48.878;13.316;2022-10-16T14:06:44;94640.25;;;17.98;100.00
21588;BME280;10956;48.878;13.316;2022-10-16T14:09:29;94644.63;;;17.94;100.00
21588;BME280;10956;48.878;13.316;2022-10-16T14:12:01;94642.38;;;17.87;100.00
21588;BME280;10956;48.878;13.316;2022-10-16T14:14:40;94650.28;;;17.79;100.00
21588;BME280;10956;48.878;13.316;2022-10-16T14:17:14;94650.09;;;17.75;100.00
21588;BME280;10956;48.878;13.316;2022-10-16T14:19:39;94651.78;;;17.71;100.00
21588;BME280;10956;48.878;13.316;2022-10-16T14:22:39;94649.41;;;17.69;100.00
21588;BME280;10956;48.878;13.316;2022-10-16T14:25:26;94658.88;;;17.62;100.00
21588;BME280;10956;48.878;13.316;2022-10-16T14:28:13;94652.84;;;17.56;100.00
21588;BME280;10956;48.878;13.316;2022-10-16T14:30:53;94656.69;;;17.50;100.00
21588;BME280;10956;48.878;13.316;2022-10-16T14:33:23;94648.81;;;17.45;100.00
21588;BME280;10956;48.878;13.316;2022-10-16T14:36:03;94652.56;;;17.44;100.00
21588;BME280;10956;48.878;13.316;2022-10-16T14:38:30;94652.16;;;17.37;100.00
21588;BME280;10956;48.878;13.316;2022-10-16T14:40:57;94660.84;;;17.29;100.00
21588;BME280;10956;48.878;13.316;2022-10-16T14:43:41;94665.78;;;17.22;100.00
21588;BME280;10956;48.878;13.316;2022-10-16T14:46:16;94665.38;;;17.15;100.00
21588;BME280;10956;48.878;13.316;2022-10-16T14:48:43;94661.25;;;17.08;100.00
21588;BME280;10956;48.878;13.316;2022-10-16T14:51:14;94672.47;;;17.05;100.00
21588;BME280;10956;48.878;13.316;2022-10-16T14:53:41;94675.44;;;17.04;100.00
21588;BME280;10956;48.878;13.316;2022-10-16T14:56:34;94667.75;;;17.02;100.00
21588;BME280;10956;48.878;13.316;2022-10-16T14:59:12;94667.25;;;17.00;100.00